ZAREMBO AK US current weather conditions

sailwx.info

Wind from 167 at 11 knots gusting 19

Air temperature 11.7° C
Dewpoint 11.5° C

Last reported at 2015-Jul-30 00:55 UTC.
Time now 2015-Jul-30 02:08 UTC

Location: N 56°18' W 132°51'.
View on Google Maps.

See reports from other nearby stations

  
Tides and Currents Weather Stations Pressure Air Temp Water Temp Dewpoint Dewpoint Depression Visibility Wind Speed Wind Dir Waves Ship Positions
date/time (UTC)wind fromknots sea level pressurealtimeterstation pressurevisibilityair tempwater tempwave heightnotes
2015-Jul-30 00:55 167 11 gusting 19 11.7
2015-Jul-29 23:55 166 9 gusting 16 11.7
2015-Jul-29 22:55 153 10 gusting 17 11.7
2015-Jul-29 21:55 147 6 gusting 12 12.2
2015-Jul-29 20:55 153 6 gusting 12 12.2
2015-Jul-29 19:55 154 6 gusting 12 12.2
2015-Jul-29 18:55 156 6 gusting 12 12.2
2015-Jul-29 17:55 168 6 gusting 11 12.2
2015-Jul-29 16:55 163 6 gusting 11 11.1
2015-Jul-29 15:55 166 6 gusting 12 10.6
2015-Jul-29 14:55 166 6 gusting 13 10.6
2015-Jul-29 13:55 181 6 gusting 11 10.6
2015-Jul-29 12:55 175 5 gusting 9 10.6
2015-Jul-29 11:55 188 4 gusting 8 10.6
2015-Jul-29 10:55 185 6 gusting 12 10.6
2015-Jul-29 09:55 197 5 gusting 8 10.6
2015-Jul-29 08:55 192 5 gusting 9 10.6
2015-Jul-29 07:55 191 6 gusting 11 10.6
2015-Jul-29 06:55 184 7 gusting 11 10.6
2015-Jul-29 05:55 174 4 gusting 7 10.6
2015-Jul-29 04:55 185 2 gusting 9 10.6
2015-Jul-29 03:55 182 4 gusting 10 10.6
2015-Jul-29 02:55 156 2 gusting 6 11.1
2015-Jul-29 01:55 292 0 gusting 7 11.1
2015-Jul-29 00:55 151 5 gusting 9 11.7
2015-Jul-28 23:55 162 6 gusting 13 12.2
2015-Jul-28 22:55 164 8 gusting 12 11.1
2015-Jul-28 21:55 179 6 gusting 9 12.2
2015-Jul-28 20:55 198 5 gusting 12 11.1
2015-Jul-28 19:55 163 7 gusting 13 11.1
2015-Jul-28 18:55 177 7 gusting 12 11.7
2015-Jul-28 17:55 165 6 gusting 13 11.7
2015-Jul-28 16:55 169 8 gusting 13 11.1
2015-Jul-28 15:55 164 8 gusting 13 11.1
2015-Jul-28 14:55 176 8 gusting 14 11.1
2015-Jul-28 13:55 166 9 gusting 16 11.1
2015-Jul-28 12:55 162 10 gusting 16 11.1
2015-Jul-28 11:55 174 11 gusting 18 11.1
2015-Jul-28 10:55 165 12 gusting 18 11.1
2015-Jul-28 09:55 168 10 gusting 16 11.1
2015-Jul-28 08:55 183 9 gusting 15 11.1
2015-Jul-28 07:55 196 11 gusting 23 11.7
2015-Jul-28 06:55 159 16 gusting 25 12.2
2015-Jul-28 05:55 153 11 gusting 22 12.2
2015-Jul-28 04:55 145 13 gusting 22 12.2
2015-Jul-28 03:55 145 11 gusting 22 12.2
2015-Jul-28 02:55 153 13 gusting 21 12.2